Latest Coastal Weather Observations for Avalon

IDV60701

Issued at 2:15 am EST Thursday 2 October 2014 (issued every 10 minutes, with the page automatically refreshed every 10 minutes)

About coastal observations | Map of coastal stations | Coastal observations for VIC | Marine services | Other Formats
Station Details ID: 087113 Name: AVALON AIRPORT Lat: -38.03 Lon: 144.48 Height: 10.6 m
Data from the previous 72 hours. | See also: Recent months at Avalon
Date/Time
EST
Temp

°C
Wind Pressure Rain
since 9am
mm
Weather Cloud Vis
km
Sea
Height
m
Swell
Dir
 
Speed
knots
Gust
knots
hPa Trend Height
m
Period
s
Dir
02/02:00am 9.4 NW 6 9 1024.2 - 0.0 - Cloudy 10 - - - -
02/01:30am 8.8 NW 8 9 1024.3 - 0.0 - Cloudy 10 - - - -
02/01:00am 7.7 NW 8 10 1024.6 - 0.0 - - 10 - - - -
02/12:30am 7.3 NNW 8 9 1024.7 - 0.0 - - 10 - - - -
02/12:00am 6.8 NNW 7 7 1025.0 - 0.0 - Mostly clear 10 - - - -
 
Date/Time
EST
Temp

°C
Wind Pressure Rain
since 9am
mm
Weather Cloud Vis
km
Sea
Height
m
Swell
Dir
 
Speed
knots
Gust
knots
hPa Trend Height
m
Period
s
Dir
01/11:30pm 7.0 NNW 7 8 1025.1 - 0.0 - Partly cloudy 10 - - - -
01/11:00pm 7.4 NW 7 7 1025.3 - 0.0 - Partly cloudy 10 - - - -
01/10:30pm 6.5 NW 6 7 1025.4 - 0.0 - - 10 - - - -
01/10:00pm 6.8 NW 6 7 1025.5 - 0.0 - - 10 - - - -
01/09:30pm 7.3 NW 6 8 1025.7 - 0.0 - - 10 - - - -
01/09:00pm 7.9 W 7 7 1025.6 - 0.0 - Partly cloudy 10 - - - -
01/08:30pm 9.7 W 9 10 1025.5 - 0.0 - - 10 - - - -
01/08:00pm 9.4 W 8 9 1025.3 - 0.0 - - 10 - - - -
01/07:30pm 10.2 W 9 10 1025.0 - 0.0 - - 10 - - - -
01/07:00pm 11.0 WSW 9 11 1024.7 - 0.0 - - 10 - - - -
01/06:30pm 12.1 WSW 13 17 1024.4 - 0.0 - - 10 - - - -
01/06:00pm 13.1 WSW 12 18 1024.2 - 0.0 - Mostly clear 10 - - - -
01/05:30pm 14.0 WSW 15 18 1024.2 - 0.0 - Partly cloudy 10 - - - -
01/05:00pm 14.7 WSW 14 19 1024.0 - 0.0 - Partly cloudy 10 - - - -
01/04:30pm 14.9 W 17 21 1023.8 - 0.0 - Partly cloudy 10 - - - -
01/04:00pm 14.6 WSW 17 22 1023.8 - 0.0 - Partly cloudy 10 - - - -
01/03:30pm 15.6 WSW 12 19 1023.6 - 0.0 - Partly cloudy 10 - - - -
01/03:02pm 13.6 WSW 15 25 1023.8 - 0.0 - Partly cloudy 10 - - - -
01/03:00pm 13.6 WSW 17 25 1023.8 - 0.0 - Cloudy 10 - - - -
01/02:46pm 15.1 W 15 25 1023.6 - 0.0 - Partly cloudy 10 - - - -
01/02:30pm 14.7 W 12 16 1023.9 - 0.0 - Partly cloudy 10 - - - -
01/02:00pm 14.2 W 14 20 1023.9 - 0.0 - Partly cloudy 10 - - - -
01/01:30pm 14.8 WSW 11 13 1023.8 - 0.0 - Partly cloudy 10 - - - -
01/01:07pm 13.2 WSW 20 24 1024.3 - 0.0 - Partly cloudy 10 - - - -
01/01:00pm 14.3 WSW 8 13 1024.0 - 0.0 - Partly cloudy 10 - - - -
01/12:30pm 11.7 SSW 14 18 1024.5 - 0.0 - Partly cloudy 10 - - - -
01/12:00pm 12.7 SSW 11 14 1024.2 - 0.0 Showers Cloudy 10 - - - -
01/11:30am 14.0 WSW 13 20 1024.0 - 0.0 - Partly cloudy 10 - - - -
01/11:00am 14.6 WSW 15 21 1023.9 - 0.0 - Partly cloudy 10 - - - -
01/10:30am 13.1 WSW 13 17 1024.1 - 0.0 - Partly cloudy 10 - - - -
01/10:00am 13.0 W 15 22 1023.9 - 0.0 - Partly cloudy 10 - - - -
01/09:30am 12.4 W 13 17 1023.7 - 0.0 - - 10 - - - -
01/09:00am 11.7 W 13 19 1023.2 - 4.2 - Mostly clear 10 - - - -
01/08:30am 10.5 W 14 18 1022.7 - 4.2 - Partly cloudy 10 - - - -
01/08:00am 9.8 W 13 17 1022.2 - 4.2 - - 10 - - - -
01/07:30am 8.3 WNW 12 15 1021.8 - 4.2 - - 10 - - - -
01/07:00am 7.1 WNW 12 15 1021.3 - 4.2 - - 10 - - - -
01/06:30am 5.9 WNW 11 16 1020.8 - 4.2 - - 10 - - - -
01/06:00am 5.9 WNW 12 16 1020.2 - 4.2 - - 10 - - - -
01/05:30am 5.5 WNW 11 14 1019.7 - 4.2 - - 10 - - - -
01/05:00am 5.5 WNW 11 13 1019.2 - 4.2 - - 10 - - - -
01/04:30am 5.8 WNW 13 17 1019.0 - 4.2 - - 10 - - - -
01/04:00am 6.1 WNW 13 16 1018.4 - 4.2 - Partly cloudy 10 - - - -
01/03:30am 6.2 WNW 15 18 1018.1 - 4.2 - - 10 - - - -
01/03:00am 6.2 WNW 14 18 1017.7 - 4.2 - - 10 - - - -
01/02:30am 6.0 WNW 11 14 1017.5 - 4.2 - - 10 - - - -
01/02:00am 6.5 WNW 13 16 1017.2 - 4.2 - Partly cloudy 10 - - - -
01/01:30am 6.5 W 13 16 1016.8 - 4.2 - Partly cloudy 10 - - - -
01/01:00am 6.8 W 17 24 1016.6 - 4.2 - - 10 - - - -
01/12:30am 6.8 W 14 21 1016.2 - 4.2 - - 10 - - - -
01/12:00am 7.1 W 16 20 1015.6 - 4.2 - Partly cloudy 10 - - - -
 
Date/Time
EST
Temp

°C
Wind Pressure Rain
since 9am
mm
Weather Cloud Vis
km
Sea
Height
m
Swell
Dir
 
Speed
knots
Gust
knots
hPa Trend Height
m
Period
s
Dir
30/11:30pm 7.2 WNW 16 20 1015.1 - 4.2 - Partly cloudy 10 - - - -
30/11:00pm 6.9 WNW 17 21 1014.8 - 4.2 - - 10 - - - -
30/10:30pm 7.2 WNW 20 26 1014.6 - 4.2 - Partly cloudy 10 - - - -
30/10:08pm 7.4 W 26 36 1014.2 - 4.2 - Partly cloudy 10 - - - -
30/10:00pm 7.9 W 31 36 1014.5 - 4.2 - Partly cloudy 10 - - - -
30/09:57pm 8.4 WNW 19 37 1014.4 - 4.2 - Partly cloudy 10 - - - -
30/09:30pm 8.4 WNW 18 23 1013.4 - 4.2 - - 10 - - - -
30/09:00pm 8.7 WNW 15 20 1012.9 - 4.2 - Cloudy 10 - - - -
30/08:30pm 8.4 WNW 15 19 1012.6 - 4.2 - - 10 - - - -
30/08:00pm 8.2 WNW 12 15 1012.4 - 4.2 - Partly cloudy 10 - - - -
30/07:45pm 7.4 W 12 16 1012.3 - 4.2 - Partly cloudy 10 - - - -
30/07:35pm 8.0 WSW 16 25 1012.6 - 4.2 - Partly cloudy 6 - - - -
30/07:30pm 8.2 WSW 16 25 1012.7 - 4.2 - Partly cloudy 7 - - - -
30/07:29pm 8.3 WSW 15 25 1012.7 - 4.2 - Partly cloudy 7 - - - -
30/07:00pm 8.8 WNW 15 19 1011.1 - 3.2 - - 10 - - - -
30/06:30pm 8.6 W 15 21 1010.7 - 3.2 - Partly cloudy 10 - - - -
30/06:05pm 9.4 W 15 25 1010.5 - 3.2 - Partly cloudy 10 - - - -
30/06:00pm 9.5 W 19 26 1010.5 - 3.2 Showers Mostly cloudy 10 - - - -
30/05:52pm 9.8 W 21 34 1010.4 - 3.2 - Partly cloudy 7 - - - -
30/05:30pm 11.8 WNW 21 33 1009.3 - 2.8 - Partly cloudy 10 - - - -
30/05:29pm 11.8 WNW 20 32 1009.2 - 2.8 - Partly cloudy 10 - - - -
30/05:00pm 12.1 WNW 19 25 1008.5 - 2.8 - Partly cloudy 10 - - - -
30/04:30pm 10.8 WNW 16 23 1008.4 - 2.8 - Partly cloudy 10 - - - -
30/04:00pm 9.6 WNW 19 24 1008.4 - 2.8 - Partly cloudy 10 - - - -
30/03:59pm 9.5 WNW 19 24 1008.3 - 2.8 - Partly cloudy 10 - - - -
30/03:39pm 9.9 W 29 52 1008.1 - 2.2 - Partly cloudy 6 - - - -
30/03:37pm 10.4 W 28 52 1008.0 - 2.2 - Partly cloudy 9 - - - -
30/03:30pm 11.0 W 28 38 1007.9 - 2.0 - Partly cloudy 10 - - - -
30/03:21pm 11.2 WSW 28 41 1007.1 - 2.0 - Partly cloudy 10 - - - -
30/03:00pm 12.0 W 25 39 1006.1 - 1.6 Showers Mostly cloudy 6 - - - -
30/02:45pm 12.7 W 29 39 1005.2 - 1.2 - Partly cloudy 10 - - - -
30/02:44pm 12.7 W 30 39 1005.0 - 1.2 - Partly cloudy 10 - - - -
30/02:30pm 12.8 W 32 43 1004.6 - 1.2 - Partly cloudy 3 - - - -
30/02:21pm 12.9 W 32 42 1004.1 - 0.4 - Partly cloudy 4 - - - -
30/02:19pm 13.7 W 42 56 1003.9 - 0.0 - Partly cloudy 6 - - - -
30/02:18pm 15.1 NW 31 56 1003.7 - 0.0 - Partly cloudy 8 - - - -
30/02:00pm 22.5 NW 29 39 1001.5 - 0.0 - Partly cloudy 10 - - - -
30/01:30pm 23.4 NW 29 40 1001.8 - 0.0 - Partly cloudy 10 - - - -
30/01:00pm 23.0 NNW 28 39 1002.4 - 0.0 - Partly cloudy 10 - - - -
30/12:30pm 21.8 NNW 24 37 1003.4 - 0.0 - Partly cloudy 10 - - - -
30/12:00pm 21.1 NNW 25 36 1004.6 - 0.0 - Cloudy 10 - - - -
30/11:51am 20.3 NNW 24 36 1004.6 - 0.0 - Partly cloudy 10 - - - -
30/11:30am 21.7 NNW 23 31 1004.8 - 0.0 - Partly cloudy 10 - - - -
30/11:00am 22.1 NNW 22 32 1005.2 - 0.0 - Partly cloudy 10 - - - -
30/10:40am 22.3 NNW 24 34 1005.5 - 0.0 - Partly cloudy 10 - - - -
30/10:30am 21.6 NNW 24 33 1005.5 - 0.0 - Partly cloudy 10 - - - -
30/10:08am 21.9 NNW 21 32 1005.9 - 0.0 - Partly cloudy 10 - - - -
30/10:00am 21.9 NW 21 29 1006.2 - 0.0 - Partly cloudy 10 - - - -
30/09:30am 20.8 NNW 20 27 1006.8 - 0.0 - Partly cloudy 10 - - - -
30/09:00am 18.9 N 16 22 1007.3 - 0.0 - Cloudy 10 - - - -
30/08:30am 17.7 N 16 21 1007.8 - 0.0 - Partly cloudy 10 - - - -
30/08:00am 17.4 N 15 21 1008.2 - 0.0 - - 10 - - - -
30/07:30am 14.0 NNE 11 14 1008.7 - 0.0 - Partly cloudy 10 - - - -
30/07:00am 12.2 N 9 11 1009.3 - 0.0 - - 10 - - - -
30/06:30am 11.1 N 7 9 1009.5 - 0.0 - - 10 - - - -
30/06:00am 8.1 N 7 8 1009.4 - 0.0 - - 10 - - - -
30/05:30am 8.8 N 7 8 1009.1 - 0.0 - - 10 - - - -
30/05:00am 10.3 N 9 10 1008.9 - 0.0 - - 10 - - - -
30/04:30am 11.1 N 9 11 1008.7 - 0.0 - Partly cloudy 10 - - - -
30/04:00am 10.1 NNW 6 6 1008.8 - 0.0 - - 10 - - - -
30/03:30am 9.6 NNW 6 7 1009.2 - 0.0 - - 10 - - - -
30/03:00am 9.5 N 5 5 1009.4 - 0.0 - - 10 - - - -
30/02:30am 10.5 NNW 4 5 1009.7 - 0.0 - - 10 - - - -
30/02:00am 10.3 NNW 6 6 1010.2 - 0.0 - - 10 - - - -
30/01:30am 10.8 N 6 7 1010.7 - 0.0 - - 10 - - - -
30/01:00am 12.0 WNW 5 6 1011.0 - 0.0 - Partly cloudy 10 - - - -
30/12:30am 13.7 W 3 5 1011.2 - 0.0 - Cloudy 10 - - - -
30/12:00am 14.4 WSW 6 7 1011.5 - 0.0 - Cloudy 10 - - - -
 
Date/Time
EST
Temp

°C
Wind Pressure Rain
since 9am
mm
Weather Cloud Vis
km
Sea
Height
m
Swell
Dir
 
Speed
knots
Gust
knots
hPa Trend Height
m
Period
s
Dir
29/11:30pm 15.1 WNW 7 10 1011.6 - 0.0 - Cloudy 10 - - - -
29/11:00pm 14.7 WSW 7 9 1011.6 - 0.0 - Cloudy 10 - - - -
29/10:30pm 15.8 N 9 11 1011.4 - 0.0 - Cloudy 10 - - - -
29/10:00pm 13.8 N 6 7 1011.3 - 0.0 - Cloudy 10 - - - -
29/09:30pm 12.9 N 6 8 1011.3 - 0.0 - - 10 - - - -
29/09:00pm 15.8 N 9 11 1011.2 - 0.0 - - 10 - - - -
29/08:30pm 16.7 N 9 10 1011.2 - 0.0 - - 10 - - - -
29/08:00pm 16.1 N 8 9 1011.2 - 0.0 - - 10 - - - -
29/07:30pm 16.3 N 7 8 1011.0 - 0.0 - - 10 - - - -
29/07:00pm 16.0 N 7 8 1010.7 - 0.0 - - 10 - - - -
29/06:30pm 17.1 NNW 8 9 1010.6 - 0.0 - - 10 - - - -
29/06:00pm 20.0 NNW 9 12 1010.5 - 0.0 - - 10 - - - -
29/05:30pm 21.4 N 11 15 1010.4 - 0.0 - - 10 - - - -
29/05:00pm 22.0 NNW 15 19 1010.3 - 0.0 - - 10 - - - -
29/04:30pm 22.9 NW 13 17 1010.3 - 0.0 - - 10 - - - -
29/04:00pm 22.4 N 16 20 1010.3 - 0.0 - - 10 - - - -
29/03:30pm 23.0 NW 15 25 1010.2 - 0.0 - - 10 - - - -
29/03:29pm 23.2 NW 15 25 1010.2 - 0.0 - - 10 - - - -
29/03:00pm 23.5 NNW 14 19 1010.4 - 0.0 - - 10 - - - -
29/02:30pm 23.5 NNW 13 22 1010.5 - 0.0 - - 10 - - - -
29/02:00pm 22.0 NNW 14 21 1010.9 - 0.0 - Partly cloudy 10 - - - -
29/01:30pm 21.8 NNW 14 21 1011.3 - 0.0 - - 10 - - - -
29/01:00pm 21.9 NNW 13 19 1011.7 - 0.0 - Partly cloudy 10 - - - -
29/12:30pm 21.3 NNW 12 20 1012.2 - 0.0 - Partly cloudy 10 - - - -
29/12:00pm 19.6 NNW 15 18 1012.7 - 0.0 - Partly cloudy 10 - - - -
29/11:30am 19.8 NNW 14 19 1012.9 - 0.0 - Partly cloudy 10 - - - -
29/11:00am 19.1 NNW 14 22 1013.2 - 0.0 - Partly cloudy 10 - - - -
29/10:30am 18.5 WNW 15 19 1013.5 - 0.0 - Partly cloudy 10 - - - -
29/10:00am 18.0 WNW 13 18 1013.7 - 0.0 - Partly cloudy 10 - - - -
29/09:30am 17.4 WNW 15 20 1013.8 - 0.0 - - 10 - - - -
29/09:00am 16.8 WNW 12 18 1013.5 - 0.0 - - 10 - - - -
29/08:30am 16.0 WNW 14 20 1013.2 - 0.0 - - 10 - - - -
29/08:00am 15.3 NW 10 15 1013.2 - 0.0 - Partly cloudy 10 - - - -
29/07:30am 14.4 NW 10 13 1013.2 - 0.0 - Partly cloudy 10 - - - -
29/07:00am 12.8 NNW 9 11 1012.9 - 0.0 - - 10 - - - -
29/06:30am 10.9 NNW 6 8 1012.6 - 0.0 - Partly cloudy 10 - - - -
29/06:00am 11.9 WNW 8 11 1012.1 - 0.0 - Mostly clear 10 - - - -
29/05:30am 12.3 W 9 11 1011.1 - 0.0 - Partly cloudy 10 - - - -
29/05:00am 12.9 WNW 15 20 1010.7 - 0.0 - - 10 - - - -
29/04:30am 13.2 WNW 13 17 1010.4 - 0.0 - - 10 - - - -
29/04:00am 13.3 WNW 11 16 1009.9 - 0.0 - - 10 - - - -
29/03:30am 13.2 WNW 8 13 1009.5 - 0.0 - - 10 - - - -
29/03:00am 13.6 W 7 11 1009.5 - 0.0 - Partly cloudy 10 - - - -
29/02:30am 13.7 WNW 14 19 1009.0 - 0.0 - - 10 - - - -

Other Formats:

Comma delimited format used in spreadsheet applications
http://www.bom.gov.au/fwo/IDV60701/IDV60701.94854.axf

JavaScript Object Notation format (JSON) in row-major order
http://www.bom.gov.au/fwo/IDV60701/IDV60701.94854.json